createdAt,value
2017-09-17T00:01:00.189Z,78.40
2017-09-17T00:03:27.616Z,78.60
2017-09-17T00:05:55.467Z,78.50
2017-09-17T00:08:22.892Z,78.50
2017-09-17T00:10:50.369Z,78.60
2017-09-17T00:13:17.813Z,78.70
2017-09-17T00:15:45.262Z,79.10
2017-09-17T00:18:12.740Z,78.80
2017-09-17T00:20:40.200Z,78.60
2017-09-17T00:23:07.630Z,78.40
2017-09-17T00:25:35.349Z,78.50
2017-09-17T00:28:02.812Z,78.60
2017-09-17T00:30:30.295Z,78.50
2017-09-17T00:32:58.031Z,78.30
2017-09-17T00:35:25.538Z,78.50
2017-09-17T00:37:53.450Z,78.30
2017-09-17T00:40:21.234Z,78.30
2017-09-17T00:42:48.688Z,78.60
2017-09-17T00:45:16.157Z,78.80
2017-09-17T00:47:43.616Z,78.80
2017-09-17T00:50:11.058Z,78.70
2017-09-17T00:52:38.525Z,78.80
2017-09-17T00:55:06.222Z,78.70
2017-09-17T00:57:33.687Z,78.30
2017-09-17T01:00:01.130Z,78.00
2017-09-17T01:02:28.652Z,77.60
2017-09-17T01:04:56.113Z,78.00
2017-09-17T01:07:23.976Z,77.80
2017-09-17T01:09:51.860Z,78.10
2017-09-17T01:12:19.868Z,78.50
2017-09-17T01:14:47.484Z,78.50
2017-09-17T01:17:14.923Z,78.60
2017-09-17T01:19:42.512Z,78.50
2017-09-17T01:22:10.142Z,78.40
2017-09-17T01:24:37.711Z,78.50
2017-09-17T01:27:05.195Z,78.50
2017-09-17T01:29:32.704Z,78.50
2017-09-17T01:32:00.288Z,78.50
2017-09-17T01:34:27.805Z,78.80
2017-09-17T01:36:55.723Z,78.50
2017-09-17T01:39:23.160Z,78.50
2017-09-17T01:41:50.625Z,78.70
2017-09-17T01:44:18.114Z,78.80
2017-09-17T01:46:46.402Z,78.80
2017-09-17T01:49:13.867Z,78.80
2017-09-17T01:51:41.356Z,78.70
2017-09-17T01:54:08.867Z,78.90
2017-09-17T01:56:36.324Z,79.00
2017-09-17T01:59:03.815Z,79.00
2017-09-17T02:01:31.464Z,78.90
2017-09-17T02:03:58.925Z,79.00
2017-09-17T02:06:26.404Z,79.40
2017-09-17T02:08:54.191Z,79.30
2017-09-17T02:11:21.625Z,79.70
2017-09-17T02:13:49.114Z,79.70
2017-09-17T02:16:16.685Z,79.60
2017-09-17T02:18:45.028Z,79.50
2017-09-17T02:21:12.487Z,79.60
2017-09-17T02:23:40.065Z,79.90
2017-09-17T02:26:07.521Z,80.00
2017-09-17T02:28:34.995Z,79.80
2017-09-17T02:31:02.467Z,79.80
2017-09-17T02:33:29.894Z,79.90
2017-09-17T02:35:57.446Z,80.00
2017-09-17T02:38:24.910Z,80.10
2017-09-17T02:40:52.422Z,80.20
2017-09-17T02:43:19.876Z,80.30
2017-09-17T02:45:47.331Z,80.20
2017-09-17T02:48:14.796Z,80.30
2017-09-17T02:50:42.565Z,80.10
2017-09-17T02:53:10.029Z,80.70
2017-09-17T02:55:38.020Z,80.30
2017-09-17T02:58:05.479Z,80.40
2017-09-17T03:00:32.927Z,80.10
2017-09-17T03:03:00.474Z,80.20
2017-09-17T03:05:27.955Z,80.20
2017-09-17T03:07:55.417Z,80.30
2017-09-17T03:10:23.095Z,80.60
2017-09-17T03:12:50.648Z,80.70
2017-09-17T03:15:18.094Z,81.20
2017-09-17T03:17:45.554Z,81.30
2017-09-17T03:20:13.053Z,81.30
2017-09-17T03:22:40.901Z,81.00
2017-09-17T03:25:08.350Z,81.00
2017-09-17T03:27:36.014Z,81.00
2017-09-17T03:30:03.489Z,81.10
2017-09-17T03:32:31.329Z,81.10
2017-09-17T03:34:58.773Z,81.10
2017-09-17T03:37:27.206Z,81.20
2017-09-17T03:39:54.673Z,81.20
2017-09-17T03:42:23.916Z,81.40
2017-09-17T03:44:51.397Z,81.10
2017-09-17T03:47:18.905Z,81.00
2017-09-17T03:49:46.343Z,81.00
2017-09-17T03:52:14.256Z,80.80
2017-09-17T03:54:41.775Z,80.60
2017-09-17T03:57:09.281Z,80.60
2017-09-17T03:59:39.699Z,80.80
2017-09-17T04:02:07.176Z,80.70
2017-09-17T04:04:35.099Z,80.50
2017-09-17T04:07:02.643Z,80.50
2017-09-17T04:09:30.108Z,80.80
2017-09-17T04:11:57.608Z,81.00
2017-09-17T04:14:25.073Z,81.40
2017-09-17T04:16:52.513Z,81.20
2017-09-17T04:19:19.938Z,81.20
2017-09-17T04:21:47.432Z,81.40
2017-09-17T04:24:14.882Z,81.30
2017-09-17T04:26:42.348Z,81.40
2017-09-17T04:29:10.004Z,81.60
2017-09-17T04:31:37.434Z,81.80
2017-09-17T04:34:05.350Z,82.50
2017-09-17T04:36:32.767Z,82.50
2017-09-17T04:39:00.616Z,82.10
2017-09-17T04:41:28.245Z,82.10
2017-09-17T04:43:55.675Z,82.00
2017-09-17T04:46:23.577Z,82.30
2017-09-17T04:48:51.288Z,82.10
2017-09-17T04:51:18.719Z,82.10
2017-09-17T04:53:46.168Z,82.10
2017-09-17T04:56:13.625Z,82.20
2017-09-17T04:58:41.089Z,82.10
2017-09-17T05:01:08.849Z,82.10
2017-09-17T05:03:36.330Z,82.00
2017-09-17T05:06:03.794Z,82.30
2017-09-17T05:08:31.250Z,82.30
2017-09-17T05:10:58.716Z,82.40
2017-09-17T05:13:26.171Z,82.40
2017-09-17T05:15:53.627Z,82.40
2017-09-17T05:18:21.067Z,82.50
2017-09-17T05:20:48.500Z,82.50
2017-09-17T05:23:16.221Z,82.60
2017-09-17T05:25:43.658Z,82.50
2017-09-17T05:28:11.144Z,82.80
2017-09-17T05:30:38.620Z,82.60
2017-09-17T05:33:06.060Z,82.30
2017-09-17T05:35:33.483Z,82.30
2017-09-17T05:38:01.358Z,82.30
2017-09-17T05:40:29.177Z,82.40
2017-09-17T05:42:56.621Z,82.40
2017-09-17T05:45:24.106Z,82.50
2017-09-17T05:47:53.551Z,82.50
2017-09-17T05:50:21.391Z,82.40
2017-09-17T05:52:48.945Z,82.50
2017-09-17T05:55:16.373Z,82.30
2017-09-17T05:57:43.811Z,82.00
2017-09-17T06:00:11.731Z,82.10
2017-09-17T06:02:39.184Z,82.00
2017-09-17T06:05:06.854Z,81.90
2017-09-17T06:07:34.317Z,81.90
2017-09-17T06:10:01.776Z,81.50
2017-09-17T06:12:29.242Z,81.40
2017-09-17T06:14:56.783Z,81.50
2017-09-17T06:17:24.304Z,81.40
2017-09-17T06:19:51.850Z,81.40
2017-09-17T06:22:19.327Z,81.70
2017-09-17T06:24:46.864Z,81.80
2017-09-17T06:27:14.454Z,81.80
2017-09-17T06:29:43.034Z,81.50
2017-09-17T06:32:10.585Z,81.80
2017-09-17T06:34:38.085Z,82.20
2017-09-17T06:37:05.533Z,82.20
2017-09-17T06:39:33.011Z,82.30
2017-09-17T06:42:00.443Z,82.10
2017-09-17T06:44:27.907Z,82.00
2017-09-17T06:46:55.572Z,81.90
2017-09-17T06:49:23.068Z,81.90
2017-09-17T06:51:50.545Z,82.00
2017-09-17T06:54:18.424Z,81.90
2017-09-17T06:56:45.894Z,81.90
2017-09-17T06:59:13.365Z,81.90
2017-09-17T07:01:40.874Z,81.80
2017-09-17T07:04:08.419Z,81.60
2017-09-17T07:06:36.174Z,81.30
2017-09-17T07:09:03.671Z,81.30
2017-09-17T07:11:31.237Z,81.10
2017-09-17T07:13:58.742Z,81.10
2017-09-17T07:16:26.436Z,80.80
2017-09-17T07:18:53.946Z,80.70
2017-09-17T07:21:21.479Z,80.80
2017-09-17T07:23:48.981Z,80.80
2017-09-17T07:26:16.809Z,80.50
2017-09-17T07:28:44.304Z,80.50
2017-09-17T07:31:12.222Z,79.90
2017-09-17T07:33:39.686Z,79.90
2017-09-17T07:36:07.154Z,79.60
2017-09-17T07:38:34.656Z,79.30
2017-09-17T07:41:02.136Z,79.30
2017-09-17T07:43:30.608Z,78.70
2017-09-17T07:45:58.043Z,78.70
2017-09-17T07:48:25.539Z,78.50
2017-09-17T07:50:53.232Z,78.10
2017-09-17T07:53:20.687Z,78.00
2017-09-17T07:55:48.367Z,77.90
2017-09-17T07:58:15.977Z,77.60
2017-09-17T08:00:43.397Z,77.50
2017-09-17T08:03:10.884Z,77.50
2017-09-17T08:05:38.434Z,77.40
2017-09-17T08:08:05.932Z,77.90
2017-09-17T08:10:33.418Z,77.90
2017-09-17T08:13:01.457Z,77.10
2017-09-17T08:15:28.951Z,77.10
2017-09-17T08:17:56.822Z,77.00
2017-09-17T08:20:24.899Z,76.80
2017-09-17T08:22:52.749Z,76.80
2017-09-17T08:25:20.211Z,76.80
2017-09-17T08:27:47.707Z,76.60
2017-09-17T08:30:15.568Z,75.90
2017-09-17T08:32:43.405Z,76.00
2017-09-17T08:35:11.000Z,76.00
2017-09-17T08:37:38.860Z,76.40
2017-09-17T08:40:06.311Z,76.30
2017-09-17T08:42:33.861Z,76.30
2017-09-17T08:45:01.308Z,75.70
2017-09-17T08:47:28.783Z,75.10
2017-09-17T08:49:56.543Z,75.20
2017-09-17T08:52:23.967Z,75.10
2017-09-17T08:54:51.422Z,75.10
2017-09-17T08:57:19.301Z,74.70
2017-09-17T08:59:46.756Z,74.70
2017-09-17T09:02:14.697Z,75.50
2017-09-17T09:04:42.202Z,75.50
2017-09-17T09:07:09.676Z,75.60
2017-09-17T09:09:37.138Z,75.40
2017-09-17T09:12:04.673Z,75.40
2017-09-17T09:14:32.205Z,75.20
2017-09-17T09:16:59.647Z,75.00
2017-09-17T09:19:27.305Z,74.30
2017-09-17T09:21:54.780Z,73.90
2017-09-17T09:24:22.209Z,73.90
2017-09-17T09:26:49.683Z,73.70
2017-09-17T09:29:17.170Z,73.70
2017-09-17T09:31:44.656Z,73.40
2017-09-17T09:34:13.029Z,73.10
2017-09-17T09:36:40.477Z,73.20
2017-09-17T09:39:07.944Z,73.10
2017-09-17T09:41:35.465Z,72.90
2017-09-17T09:44:02.934Z,72.90
2017-09-17T09:46:30.461Z,72.80
2017-09-17T09:48:58.377Z,71.90
2017-09-17T09:51:25.807Z,71.90
2017-09-17T09:53:53.747Z,71.40
2017-09-17T09:56:21.259Z,71.40
2017-09-17T09:58:48.743Z,71.60
2017-09-17T10:01:16.211Z,71.80
2017-09-17T10:03:43.695Z,71.50
2017-09-17T10:06:11.600Z,71.40
2017-09-17T10:08:39.060Z,71.20
2017-09-17T10:11:06.984Z,70.40
2017-09-17T10:13:34.504Z,70.40
2017-09-17T10:16:02.554Z,69.80
2017-09-17T10:18:30.075Z,69.80
2017-09-17T10:20:57.629Z,69.90
2017-09-17T10:23:25.290Z,69.90
2017-09-17T10:25:52.833Z,69.90
2017-09-17T10:28:21.000Z,68.80
2017-09-17T10:30:48.493Z,68.80
2017-09-17T10:33:16.011Z,68.60
2017-09-17T10:35:43.613Z,69.30
2017-09-17T10:38:11.885Z,69.80
2017-09-17T10:40:39.808Z,69.80
2017-09-17T10:43:07.502Z,69.90
2017-09-17T10:45:34.986Z,70.10
2017-09-17T10:48:02.622Z,70.00
2017-09-17T10:50:30.124Z,69.50
2017-09-17T10:52:58.031Z,68.50
2017-09-17T10:55:25.537Z,68.50
2017-09-17T10:57:53.920Z,66.90
2017-09-17T11:00:21.418Z,66.90
2017-09-17T11:02:48.929Z,66.70
2017-09-17T11:05:16.452Z,66.40
2017-09-17T11:07:44.007Z,66.80
2017-09-17T11:10:11.485Z,66.70
2017-09-17T11:12:38.972Z,66.40
2017-09-17T11:15:06.401Z,66.70
2017-09-17T11:17:33.912Z,66.50
2017-09-17T11:20:01.336Z,65.20
2017-09-17T11:22:28.800Z,65.20
2017-09-17T11:24:56.322Z,65.40
2017-09-17T11:27:24.184Z,63.40
2017-09-17T11:29:52.129Z,62.30
2017-09-17T11:32:19.626Z,62.30
2017-09-17T11:34:47.496Z,62.90
2017-09-17T11:37:15.388Z,63.40
2017-09-17T11:39:42.868Z,63.40
2017-09-17T11:42:10.371Z,63.20
2017-09-17T11:44:38.173Z,61.30
2017-09-17T11:47:06.024Z,61.70
2017-09-17T11:49:33.481Z,60.60
2017-09-17T11:52:01.401Z,60.50
2017-09-17T11:54:29.056Z,60.50
2017-09-17T11:56:56.557Z,61.80
2017-09-17T11:59:24.110Z,61.70
2017-09-17T12:01:51.681Z,60.60
2017-09-17T12:04:19.282Z,66.10
2017-09-17T12:06:46.772Z,60.80
2017-09-17T12:09:14.805Z,60.90
2017-09-17T12:11:42.366Z,59.80
2017-09-17T12:14:09.838Z,59.70
2017-09-17T12:16:37.323Z,59.40
2017-09-17T12:19:05.465Z,59.90
2017-09-17T12:21:32.994Z,59.90
2017-09-17T12:24:00.530Z,59.10
2017-09-17T12:26:28.297Z,59.20
2017-09-17T12:28:56.447Z,58.30
2017-09-17T12:31:23.969Z,58.30
2017-09-17T12:33:52.271Z,57.20
2017-09-17T12:36:20.424Z,58.40
2017-09-17T12:38:47.960Z,58.40
2017-09-17T12:41:15.877Z,57.20
2017-09-17T12:43:43.360Z,57.20
2017-09-17T12:46:10.856Z,57.80
2017-09-17T12:48:38.514Z,57.10
2017-09-17T12:51:06.470Z,56.80
2017-09-17T12:53:33.985Z,56.70
2017-09-17T12:56:01.413Z,56.90
2017-09-17T12:58:29.600Z,57.20
2017-09-17T13:00:57.809Z,57.20
2017-09-17T13:03:25.881Z,56.50
2017-09-17T13:05:53.776Z,57.00
2017-09-17T13:08:21.333Z,57.40
2017-09-17T13:10:48.964Z,57.10
2017-09-17T13:13:16.576Z,57.70
2017-09-17T13:15:44.404Z,56.70
2017-09-17T13:18:12.647Z,57.00
2017-09-17T13:20:40.217Z,57.40
2017-09-17T13:23:08.026Z,58.40
2017-09-17T13:25:36.145Z,57.90
2017-09-17T13:28:04.825Z,57.60
2017-09-17T13:30:32.395Z,57.70
2017-09-17T13:32:59.917Z,57.70
2017-09-17T13:35:27.746Z,57.10
2017-09-17T13:37:55.280Z,57.20
2017-09-17T13:40:22.850Z,57.40
2017-09-17T13:42:50.360Z,57.90
2017-09-17T13:45:18.281Z,57.60
2017-09-17T13:47:46.050Z,57.60
2017-09-17T13:50:13.703Z,57.40
2017-09-17T13:52:56.100Z,57.10
2017-09-17T13:55:25.225Z,57.00
2017-09-17T13:57:52.837Z,57.80
2017-09-17T14:00:21.328Z,57.70
2017-09-17T14:02:50.911Z,57.70
2017-09-17T14:05:24.345Z,58.90
2017-09-17T14:08:09.724Z,59.40
2017-09-17T14:10:40.778Z,59.90
2017-09-17T14:13:08.926Z,59.40
2017-09-17T14:15:37.158Z,58.80
2017-09-17T14:18:04.745Z,58.80
2017-09-17T14:20:32.258Z,58.70
2017-09-17T14:22:59.979Z,59.10
2017-09-17T14:25:27.467Z,59.70
2017-09-17T14:27:55.556Z,60.00
2017-09-17T14:30:23.892Z,60.00
2017-09-17T14:32:51.500Z,60.70
2017-09-17T14:35:19.073Z,61.00
2017-09-17T14:37:46.836Z,61.00
2017-09-17T14:40:14.605Z,60.70
2017-09-17T14:42:42.132Z,60.60
2017-09-17T14:45:10.345Z,60.30
2017-09-17T14:47:37.823Z,60.40
2017-09-17T14:50:05.323Z,60.90
2017-09-17T14:52:33.037Z,61.50
2017-09-17T14:55:00.641Z,61.70
2017-09-17T14:57:28.161Z,62.00
2017-09-17T14:59:55.717Z,60.70
2017-09-17T15:02:24.995Z,62.10
2017-09-17T15:04:52.504Z,62.10
2017-09-17T15:07:19.993Z,62.60
2017-09-17T15:09:47.554Z,64.00
2017-09-17T15:12:15.194Z,65.90
2017-09-17T15:14:42.860Z,66.80
2017-09-17T15:17:10.418Z,67.50
2017-09-17T15:19:39.161Z,67.90
2017-09-17T15:22:07.816Z,68.60
2017-09-17T15:24:36.035Z,68.30
2017-09-17T15:27:03.846Z,68.30
2017-09-17T15:29:32.579Z,68.20
2017-09-17T15:32:00.323Z,69.30
2017-09-17T15:34:28.417Z,70.20
2017-09-17T15:36:56.673Z,70.20
2017-09-17T15:39:24.071Z,71.10
2017-09-17T15:41:51.485Z,70.80
2017-09-17T15:44:19.172Z,71.10
2017-09-17T15:46:46.600Z,71.60
2017-09-17T15:49:14.016Z,72.40
2017-09-17T15:51:41.639Z,73.60
2017-09-17T15:54:09.131Z,74.80
2017-09-17T15:56:36.592Z,75.40
2017-09-17T15:59:04.017Z,75.30
2017-09-17T16:01:31.493Z,74.80
2017-09-17T16:03:59.864Z,75.00
2017-09-17T16:06:27.540Z,75.40
2017-09-17T16:08:54.960Z,74.70
2017-09-17T16:11:22.778Z,74.00
2017-09-17T16:13:50.223Z,74.00
2017-09-17T16:16:17.715Z,72.10
2017-09-17T16:18:45.188Z,72.60
2017-09-17T16:21:12.855Z,72.80
2017-09-17T16:23:40.557Z,72.20
2017-09-17T16:26:07.963Z,71.80
2017-09-17T16:28:35.414Z,72.40
2017-09-17T16:31:02.892Z,72.70
2017-09-17T16:33:30.311Z,72.50
2017-09-17T16:35:58.490Z,70.70
2017-09-17T16:38:25.970Z,70.70
2017-09-17T16:40:53.478Z,70.90
2017-09-17T16:43:21.140Z,70.20
2017-09-17T16:45:48.583Z,71.70
2017-09-17T16:48:15.991Z,71.70
2017-09-17T16:50:44.036Z,72.30
2017-09-17T16:56:02.697Z,72.70
2017-09-17T16:58:30.109Z,72.80
2017-09-17T17:00:57.600Z,72.00
2017-09-17T17:03:25.078Z,72.40
2017-09-17T17:05:52.516Z,72.70
2017-09-17T17:08:19.974Z,73.00
2017-09-17T17:10:47.438Z,73.60
2017-09-17T17:13:14.946Z,73.60
2017-09-17T17:15:42.369Z,73.60
2017-09-17T17:18:09.824Z,73.90
2017-09-17T17:20:37.705Z,73.80
2017-09-17T17:23:05.974Z,73.90
2017-09-17T17:25:34.452Z,73.90
2017-09-17T17:28:01.869Z,74.30
2017-09-17T17:30:29.292Z,74.50
2017-09-17T17:32:56.996Z,74.70
2017-09-17T17:35:24.423Z,74.90
2017-09-17T17:37:51.887Z,74.90
2017-09-17T17:40:19.480Z,75.00
2017-09-17T17:42:46.903Z,75.10
2017-09-17T17:45:14.334Z,75.20
2017-09-17T17:47:41.756Z,75.30
2017-09-17T17:50:09.182Z,75.50
2017-09-17T17:52:36.655Z,76.00
2017-09-17T17:55:04.096Z,76.60
2017-09-17T17:57:31.512Z,76.60
2017-09-17T17:59:58.953Z,77.20
2017-09-17T18:02:26.390Z,77.10
2017-09-17T18:04:53.853Z,77.40
2017-09-17T18:07:21.286Z,77.50
2017-09-17T18:09:49.120Z,77.40
2017-09-17T18:12:16.536Z,77.40
2017-09-17T18:14:43.955Z,77.50
2017-09-17T18:17:11.568Z,77.70
2017-09-17T18:19:39.024Z,77.60
2017-09-17T18:22:06.497Z,77.60
2017-09-17T18:24:33.958Z,77.60
2017-09-17T18:27:01.424Z,77.50
2017-09-17T18:29:28.848Z,77.60
2017-09-17T18:31:56.712Z,77.70
2017-09-17T18:34:26.156Z,77.50
2017-09-17T18:36:53.575Z,77.40
2017-09-17T18:39:21.596Z,77.40
2017-09-17T18:41:49.009Z,77.30
2017-09-17T18:44:16.862Z,76.70
2017-09-17T18:46:44.395Z,76.70
2017-09-17T18:49:11.810Z,76.60
2017-09-17T18:51:39.655Z,76.50
2017-09-17T18:54:07.076Z,76.40
2017-09-17T18:56:34.566Z,76.30
2017-09-17T18:59:02.210Z,76.20
2017-09-17T19:01:29.669Z,76.10
2017-09-17T19:03:57.089Z,76.10
2017-09-17T19:06:25.113Z,75.80
2017-09-17T19:08:52.576Z,75.80
2017-09-17T19:11:19.994Z,75.40
2017-09-17T19:13:47.816Z,75.20
2017-09-17T19:16:15.357Z,75.20
2017-09-17T19:18:42.772Z,75.40
2017-09-17T19:21:10.299Z,75.40
2017-09-17T19:23:37.734Z,75.60
2017-09-17T19:26:05.330Z,75.40
2017-09-17T19:28:32.781Z,75.10
2017-09-17T19:31:00.243Z,75.20
2017-09-17T19:33:27.670Z,75.10
2017-09-17T19:35:55.489Z,74.90
2017-09-17T19:38:23.132Z,74.90
2017-09-17T19:40:50.565Z,74.70
2017-09-17T19:43:18.466Z,75.10
2017-09-17T19:45:46.836Z,75.10
2017-09-17T19:48:14.954Z,75.70
2017-09-17T19:50:42.400Z,75.80
2017-09-17T19:53:16.579Z,75.80
2017-09-17T19:55:44.003Z,76.00
2017-09-17T19:58:11.527Z,76.10
2017-09-17T20:00:38.988Z,76.10
2017-09-17T20:03:06.419Z,76.00
2017-09-17T20:05:34.227Z,76.00
2017-09-17T20:08:01.804Z,76.00
2017-09-17T20:10:29.225Z,75.80
2017-09-17T20:12:56.649Z,75.90
2017-09-17T20:15:25.519Z,76.10
2017-09-17T20:17:52.986Z,76.10
2017-09-17T20:20:20.525Z,76.10
2017-09-17T20:22:48.185Z,76.30
2017-09-17T20:25:15.643Z,76.50
2017-09-17T20:27:43.065Z,76.60
2017-09-17T20:33:01.959Z,76.80
2017-09-17T20:35:29.445Z,76.60
2017-09-17T20:37:56.914Z,76.30
2017-09-17T20:40:24.356Z,76.30
2017-09-17T20:42:51.781Z,76.40
2017-09-17T20:45:19.503Z,76.80
2017-09-17T20:47:46.940Z,76.70
2017-09-17T20:50:14.366Z,76.80
2017-09-17T20:52:41.888Z,76.80
2017-09-17T20:55:09.328Z,76.70
2017-09-17T20:57:36.812Z,76.80
2017-09-17T21:00:04.265Z,76.90
2017-09-17T21:02:31.679Z,77.00
2017-09-17T21:04:59.201Z,76.80
2017-09-17T21:07:26.682Z,76.70
2017-09-17T21:09:54.114Z,76.90
2017-09-17T21:12:21.534Z,77.00
2017-09-17T21:14:50.251Z,76.90
2017-09-17T21:17:17.732Z,76.90
2017-09-17T21:19:45.154Z,76.90
2017-09-17T21:22:13.018Z,76.90
2017-09-17T21:24:40.450Z,76.90
2017-09-17T21:27:07.888Z,77.00
2017-09-17T21:29:35.333Z,76.90
2017-09-17T21:32:02.738Z,76.80
2017-09-17T21:34:30.209Z,76.80
2017-09-17T21:36:57.660Z,76.70
2017-09-17T21:39:25.101Z,76.60
2017-09-17T21:41:52.515Z,77.00
2017-09-17T21:44:20.531Z,76.90
2017-09-17T21:46:48.291Z,76.90
2017-09-17T21:49:15.725Z,77.10
2017-09-17T21:51:43.630Z,77.10
2017-09-17T21:54:11.051Z,77.10
2017-09-17T21:56:38.957Z,76.60
2017-09-17T21:59:06.419Z,76.60
2017-09-17T22:01:33.840Z,76.70
2017-09-17T22:04:01.256Z,76.80
2017-09-17T22:06:28.706Z,76.70
2017-09-17T22:08:56.129Z,76.70
2017-09-17T22:11:23.660Z,76.70
2017-09-17T22:13:51.305Z,76.70
2017-09-17T22:16:18.778Z,76.40
2017-09-17T22:18:46.200Z,76.20
2017-09-17T22:21:13.878Z,76.30
2017-09-17T22:23:41.343Z,76.40
2017-09-17T22:26:08.770Z,76.30
2017-09-17T22:28:36.696Z,77.40
2017-09-17T22:31:04.143Z,77.40
2017-09-17T22:33:31.562Z,77.60
2017-09-17T22:35:59.478Z,77.60
2017-09-17T22:38:26.875Z,77.60
2017-09-17T22:40:54.290Z,77.50
2017-09-17T22:43:21.748Z,77.60
2017-09-17T22:45:49.166Z,77.60
2017-09-17T22:48:16.599Z,77.80
2017-09-17T22:50:44.071Z,78.10
2017-09-17T22:53:11.499Z,78.20
2017-09-17T22:55:38.967Z,78.10
2017-09-17T22:58:06.406Z,77.90
2017-09-17T23:00:34.220Z,78.50
2017-09-17T23:03:01.688Z,78.50
2017-09-17T23:05:29.128Z,78.30
2017-09-17T23:07:56.547Z,78.20
2017-09-17T23:10:24.429Z,77.70
2017-09-17T23:12:52.230Z,77.50
2017-09-17T23:15:19.686Z,77.50
2017-09-17T23:17:47.312Z,77.60
2017-09-17T23:20:15.235Z,77.70
2017-09-17T23:22:42.665Z,77.70
2017-09-17T23:25:10.166Z,77.80
2017-09-17T23:27:38.450Z,78.20
2017-09-17T23:30:05.901Z,78.10
2017-09-17T23:32:33.473Z,78.00
2017-09-17T23:35:00.905Z,77.90
2017-09-17T23:37:28.324Z,78.10
2017-09-17T23:39:55.791Z,78.10
2017-09-17T23:42:23.220Z,78.00
2017-09-17T23:44:50.660Z,78.20
2017-09-17T23:47:18.186Z,78.10
2017-09-17T23:49:45.594Z,78.20
2017-09-17T23:52:13.025Z,78.30
2017-09-17T23:54:41.067Z,78.30
2017-09-17T23:57:08.495Z,78.30
2017-09-17T23:59:35.940Z,78.50
